Patterson, NY

2:41 PM EDT on September 04, 2015 (GMT -0400)
Holmes | | Change Station
CLOSE
Current Station
Personal Weather Station
Location: Holmes, NY
Elevation: 820 ft
Nearby Weather Stations

Elev 820 ft 41.51 °N, 73.68 °W | Updated 46 seconds ago

Overcast
Overcast
78.2 °F
Feels Like 80 °F
N
2.8
Wind Variable Wind from SSW
Gusts 3.8 mph

Today
High -- | Low -- °F
--% Chance of Precip.
Yesterday
High -- | Low -- °F
Precip. -- in
6:23 AM 7:22 PM
Waning Gibbous, 57% visible
Pressure 30.13 in
Visibility 9.0 miles
Clouds Mostly Cloudy 3200 ft
Heat Index 80 °F
Dew Point 65 °F
Humidity 65%
Rainfall 0.00 in
Snow Depth Not available.
UV 5 out of 12
Pollen 8.20 out of 12
Air Quality Not available.
Flu Activity Not available.
METAR KDXR 041753Z 06007KT 9SM BKN032 26/18 A3014 RMK AO2 SLP203 T02610178 10261 20222 51008
Pressure 30.13 in
Visibility 9.0 miles
Clouds Mostly Cloudy 3200 ft
Heat Index 80 °F
Dew Point 65 °F
Humidity 65%
Rainfall 0.00 in
Snow Depth Not available.
UV 5 out of 12
Pollen 8.20 out of 12
Air Quality Not available.
Flu Activity Not available.
METAR KDXR 041753Z 06007KT 9SM BKN032 26/18 A3014 RMK AO2 SLP203 T02610178 10261 20222 51008

10-Day Weather Forecast

×

Almanac

Astronomy

Sep. 04, 2015 Rise Set
Actual Time
Civil Twilight
Nautical Twilight
Astronomical Twilight
Moon
Length of Visible Light
Length of Day
Tomorrow will be .
, % of the Moon is Illuminated

Today's Extremes

State Highs State Lows

Community

WunderPhotos

Upload Photos

1,852,262 photos uploaded!

WunderBlogs® & News

Nearby

Air Quality

  Air Quality AQ Index Pollutant
Not available.

Snow Depth

Station Depth Elevation

Earthquake Activity

City Distance Mag. Time & Date
Minimum magnitude displayed is 2.5.

Coastal Water Temperatures

Place Temperature

Stations

Nearby Weather Stations

Station Location Temp. Windchill Dew Point Humidity Wind Precip. Elev Updated Type